Time;durP1;ratioP1;P1;durP2;ratioP2;P2;SDS_P1;SDS_P2;PMS_P1;PMS_P2;Temp;Humidity;BMP_temperature;BMP_pressure;BME280_temperature;BME280_humidity;BME280_pressure;Samples;Min_cycle;Max_cycle;Signal;HPM_P1;HPM_P2
2023/09/17 00:00:44;;;;;;;;;;;;;;;;;;5093866;28;871;-66
2023/09/17 00:03:09;;;;;;;;;;;;;;;;;;5093410;28;876;-66
2023/09/17 00:05:35;;;;;;;;;;;;;;;;;;5092449;28;1163;-66
2023/09/17 00:08:00;;;;;;;;;;;;;;;;;;5092699;28;1230;-66
2023/09/17 00:10:25;;;;;;;;;;;;;;;;;;5093482;28;1043;-66
2023/09/17 00:12:53;;;;;;;;;;;;;;;;;;5091313;28;1964;-66
2023/09/17 00:15:19;;;;;;;;;;;;;;;;;;5092476;28;852;-66
2023/09/17 00:17:44;;;;;;;;;;;;;;;;;;5092417;28;888;-66
2023/09/17 00:20:13;;;;;;;;;;;;;;;;;;5090638;28;1059;-67
2023/09/17 00:22:38;;;;;;;;;;;;;;;;;;5091617;28;867;-66
2023/09/17 00:25:04;;;;;;;;;;;;;;;;;;5089761;28;895;-66
2023/09/17 00:27:30;;;;;;;;;;;;;;;;;;5091956;28;973;-66
2023/09/17 00:29:55;;;;;;;;;;;;;;;;;;5091965;28;833;-66
2023/09/17 00:32:20;;;;;;;;;;;;;;;;;;5092013;28;876;-66
2023/09/17 00:34:45;;;;;;;;;;;;;;;;;;5092101;28;1902;-66
2023/09/17 00:37:10;;;;;;;;;;;;;;;;;;5090218;28;888;-67
2023/09/17 00:39:36;;;;;;;;;;;;;;;;;;5091778;28;903;-66
2023/09/17 00:42:01;;;;;;;;;;;;;;;;;;5073570;28;876;-66
2023/09/17 00:44:26;;;;;;;;;;;;;;;;;;5092466;28;1041;-66
2023/09/17 00:46:51;;;;;;;;;;;;;;;;;;5092168;28;1045;-66
2023/09/17 00:49:17;;;;;;;;;;;;;;;;;;5090377;28;911;-67
2023/09/17 00:51:43;;;;;;;;;;;;;;;;;;5092421;28;801;-66
2023/09/17 00:54:09;;;;;;;;;;;;;;;;;;5092210;28;1980;-66
2023/09/17 00:56:36;;;;;;;;;;;;;;;;;;5092922;28;919;-66
2023/09/17 00:59:03;;;;;;;;;;;;;;;;;;5091808;28;832;-66
2023/09/17 01:01:28;;;;;;;;;;;;;;;;;;5092579;28;921;-66
2023/09/17 01:03:54;;;;;;;;;;;;;;;;;;5093055;28;1102;-67
2023/09/17 01:06:20;;;;;;;;;;;;;;;;;;5091471;28;1014;-66
2023/09/17 01:08:46;;;;;;;;;;;;;;;;;;5092320;28;1077;-66
2023/09/17 01:11:12;;;;;;;;;;;;;;;;;;5092491;28;867;-66
2023/09/17 01:13:40;;;;;;;;;;;;;;;;;;5093115;28;1961;-66
2023/09/17 01:16:06;;;;;;;;;;;;;;;;;;5092581;28;851;-66
2023/09/17 01:18:32;;;;;;;;;;;;;;;;;;5092888;28;840;-66
2023/09/17 01:21:16;;;;;;;;;;;;;;;;;;5091810;28;909;-66
2023/09/17 01:23:43;;;;;;;;;;;;;;;;;;5091899;28;828;-66
2023/09/17 01:26:26;;;;;;;;;;;;;;;;;;5092226;28;907;-67
2023/09/17 01:28:53;;;;;;;;;;;;;;;;;;5092331;28;824;-66
2023/09/17 01:31:19;;;;;;;;;;;;;;;;;;5090549;28;1049;-66
2023/09/17 01:33:44;;;;;;;;;;;;;;;;;;5092374;28;1955;-66
2023/09/17 01:36:14;;;;;;;;;;;;;;;;;;5091101;28;950;-66
2023/09/17 01:38:46;;;;;;;;;;;;;;;;;;5091864;28;1007;-66
2023/09/17 01:41:11;;;;;;;;;;;;;;;;;;5090622;28;927;-66
2023/09/17 01:43:38;;;;;;;;;;;;;;;;;;5091457;28;931;-66
2023/09/17 01:46:04;;;;;;;;;;;;;;;;;;5090808;28;963;-66
2023/09/17 01:48:29;;;;;;;;;;;;;;;;;;5091467;28;872;-66
2023/09/17 01:50:55;;;;;;;;;;;;;;;;;;5091302;28;832;-66
2023/09/17 01:53:20;;;;;;;;;;;;;;;;;;5090802;28;1956;-66
2023/09/17 01:55:49;;;;;;;;;;;;;;;;;;5089636;28;1180;-66
2023/09/17 01:58:16;;;;;;;;;;;;;;;;;;5090133;28;970;-66
2023/09/17 02:00:41;;;;;;;;;;;;;;;;;;5091310;28;927;-66
2023/09/17 02:03:08;;;;;;;;;;;;;;;;;;5090334;28;876;-66
2023/09/17 02:05:33;;;;;;;;;;;;;;;;;;5090672;28;1091;-66
2023/09/17 02:07:58;;;;;;;;;;;;;;;;;;5090051;28;1230;-66
2023/09/17 02:10:23;;;;;;;;;;;;;;;;;;5101019;28;1170;-66
2023/09/17 02:12:49;;;;;;;;;;;;;;;;;;5086920;28;1905;-66
2023/09/17 02:15:14;;;;;;;;;;;;;;;;;;5102821;28;1096;-66
2023/09/17 02:17:42;;;;;;;;;;;;;;;;;;5096993;28;1155;-66
2023/09/17 02:20:08;;;;;;;;;;;;;;;;;;5090284;28;828;-66
2023/09/17 02:22:33;;;;;;;;;;;;;;;;;;5091327;28;932;-66
2023/09/17 02:24:59;;;;;;;;;;;;;;;;;;5089408;28;837;-66
2023/09/17 02:27:24;;;;;;;;;;;;;;;;;;5072692;28;1488;-67
2023/09/17 02:29:49;;;;;;;;;;;;;;;;;;5089980;28;848;-66
2023/09/17 02:32:14;;;;;;;;;;;;;;;;;;5091037;28;1101;-66
2023/09/17 02:34:40;;;;;;;;;;;;;;;;;;5091327;28;1890;-66
2023/09/17 02:37:05;;;;;;;;;;;;;;;;;;5090621;28;816;-66
2023/09/17 02:39:30;;;;;;;;;;;;;;;;;;5091651;28;895;-66
2023/09/17 02:41:56;;;;;;;;;;;;;;;;;;5090145;28;1222;-66
2023/09/17 02:44:21;;;;;;;;;;;;;;;;;;5089055;28;1228;-66
2023/09/17 02:46:47;;;;;;;;;;;;;;;;;;5090908;28;1003;-66
2023/09/17 02:49:12;;;;;;;;;;;;;;;;;;5092224;28;804;-66
2023/09/17 02:51:37;;;;;;;;;;;;;;;;;;5093571;28;1003;-66
2023/09/17 02:54:03;;;;;;;;;;;;;;;;;;5092723;28;1942;-66
2023/09/17 02:56:29;;;;;;;;;;;;;;;;;;5094620;28;940;-66
2023/09/17 02:58:54;;;;;;;;;;;;;;;;;;5094276;28;943;-66
2023/09/17 03:01:19;;;;;;;;;;;;;;;;;;5093482;28;1112;-66
2023/09/17 03:03:45;;;;;;;;;;;;;;;;;;5109437;28;1195;-66
2023/09/17 03:06:10;;;;;;;;;;;;;;;;;;5099768;27;1051;-66
2023/09/17 03:08:41;;;;;;;;;;;;;;;;;;5106021;28;1155;-66
2023/09/17 03:11:06;;;;;;;;;;;;;;;;;;5113825;28;1111;-66
2023/09/17 03:13:31;;;;;;;;;;;;;;;;;;5114140;28;1909;-66
2023/09/17 03:15:58;;;;;;;;;;;;;;;;;;5114612;28;1007;-66
2023/09/17 03:18:23;;;;;;;;;;;;;;;;;;5114927;28;907;-66
2023/09/17 03:20:49;;;;;;;;;;;;;;;;;;5113923;28;1202;-66
2023/09/17 03:23:14;;;;;;;;;;;;;;;;;;5112710;28;1210;-66
2023/09/17 03:25:40;;;;;;;;;;;;;;;;;;5115282;28;955;-66
2023/09/17 03:28:05;;;;;;;;;;;;;;;;;;5114768;28;816;-66
2023/09/17 03:30:31;;;;;;;;;;;;;;;;;;5114705;28;824;-66
2023/09/17 03:32:57;;;;;;;;;;;;;;;;;;5114124;28;1894;-66
2023/09/17 03:35:23;;;;;;;;;;;;;;;;;;5113313;28;848;-66
2023/09/17 03:37:48;;;;;;;;;;;;;;;;;;5113194;28;951;-67
2023/09/17 03:40:14;;;;;;;;;;;;;;;;;;5113335;28;836;-66
2023/09/17 03:42:40;;;;;;;;;;;;;;;;;;5112325;28;895;-66
2023/09/17 03:45:06;;;;;;;;;;;;;;;;;;5113150;28;1001;-66
2023/09/17 03:47:32;;;;;;;;;;;;;;;;;;5112101;28;888;-66
2023/09/17 03:49:57;;;;;;;;;;;;;;;;;;5112372;28;790;-66
2023/09/17 03:52:23;;;;;;;;;;;;;;;;;;5113403;28;934;-66
2023/09/17 03:54:48;;;;;;;;;;;;;;;;;;5113407;28;1889;-66
2023/09/17 03:57:13;;;;;;;;;;;;;;;;;;5112951;28;832;-66
2023/09/17 03:59:39;;;;;;;;;;;;;;;;;;5113104;28;1026;-66
2023/09/17 04:02:04;;;;;;;;;;;;;;;;;;5113133;28;1010;-66
2023/09/17 04:04:30;;;;;;;;;;;;;;;;;;5112312;28;1273;-66
2023/09/17 04:06:56;;;;;;;;;;;;;;;;;;5112911;28;848;-66
2023/09/17 04:09:21;;;;;;;;;;;;;;;;;;5112725;28;1248;-66
2023/09/17 04:11:46;;;;;;;;;;;;;;;;;;5113760;28;922;-66
2023/09/17 04:14:12;;;;;;;;;;;;;;;;;;5113527;28;1976;-66
2023/09/17 04:16:37;;;;;;;;;;;;;;;;;;5112802;28;1536;-66
2023/09/17 04:19:03;;;;;;;;;;;;;;;;;;5114222;28;789;-66
2023/09/17 04:21:28;;;;;;;;;;;;;;;;;;5113814;28;927;-66
2023/09/17 04:23:53;;;;;;;;;;;;;;;;;;5113969;28;820;-66
2023/09/17 04:26:19;;;;;;;;;;;;;;;;;;5112774;28;859;-66
2023/09/17 04:28:46;;;;;;;;;;;;;;;;;;5113124;28;864;-66
2023/09/17 04:31:11;;;;;;;;;;;;;;;;;;5113035;28;874;-66
2023/09/17 04:33:36;;;;;;;;;;;;;;;;;;5113382;28;1975;-66
2023/09/17 04:36:03;;;;;;;;;;;;;;;;;;5112612;28;963;-66
2023/09/17 04:38:28;;;;;;;;;;;;;;;;;;5113008;28;872;-66
2023/09/17 04:40:54;;;;;;;;;;;;;;;;;;5113128;28;908;-66
2023/09/17 04:43:21;;;;;;;;;;;;;;;;;;5112752;28;828;-66
2023/09/17 04:45:46;;;;;;;;;;;;;;;;;;5112386;28;927;-66
2023/09/17 04:48:11;;;;;;;;;;;;;;;;;;5111013;28;1411;-67
2023/09/17 04:50:39;;;;;;;;;;;;;;;;;;5111931;28;1066;-66
2023/09/17 04:53:04;;;;;;;;;;;;;;;;;;5111987;28;1910;-66
2023/09/17 04:55:29;;;;;;;;;;;;;;;;;;5112662;28;820;-66
2023/09/17 04:57:54;;;;;;;;;;;;;;;;;;5112290;28;847;-66
2023/09/17 05:00:20;;;;;;;;;;;;;;;;;;5111240;28;879;-66
2023/09/17 05:02:46;;;;;;;;;;;;;;;;;;5112398;28;927;-66
2023/09/17 05:05:12;;;;;;;;;;;;;;;;;;5111992;28;1014;-66
2023/09/17 05:07:41;;;;;;;;;;;;;;;;;;5110709;28;885;-66
2023/09/17 05:10:07;;;;;;;;;;;;;;;;;;5111473;28;1131;-66
2023/09/17 05:12:32;;;;;;;;;;;;;;;;;;5111214;27;777;-66
2023/09/17 05:14:58;;;;;;;;;;;;;;;;;;5111966;28;1918;-66
2023/09/17 05:17:23;;;;;;;;;;;;;;;;;;5112321;28;920;-66
2023/09/17 05:19:48;;;;;;;;;;;;;;;;;;5112882;28;832;-66
2023/09/17 05:22:14;;;;;;;;;;;;;;;;;;5112322;28;876;-66
2023/09/17 05:24:39;;;;;;;;;;;;;;;;;;5094065;28;1243;-66
2023/09/17 05:27:04;;;;;;;;;;;;;;;;;;5110980;28;1574;-67
2023/09/17 05:29:30;;;;;;;;;;;;;;;;;;5111209;28;836;-66
2023/09/17 05:31:55;;;;;;;;;;;;;;;;;;5112812;28;891;-66
2023/09/17 05:34:20;;;;;;;;;;;;;;;;;;5110575;28;1901;-66
2023/09/17 05:36:45;;;;;;;;;;;;;;;;;;5112876;28;888;-66
2023/09/17 05:39:11;;;;;;;;;;;;;;;;;;5112527;28;809;-66
2023/09/17 05:41:37;;;;;;;;;;;;;;;;;;5113056;28;939;-66
2023/09/17 05:44:03;;;;;;;;;;;;;;;;;;5112772;27;926;-66
2023/09/17 05:46:29;;;;;;;;;;;;;;;;;;5111281;28;1300;-66
2023/09/17 05:48:54;;;;;;;;;;;;;;;;;;5112951;28;883;-66
2023/09/17 05:51:20;;;;;;;;;;;;;;;;;;5111657;28;1062;-66
2023/09/17 05:53:45;;;;;;;;;;;;;;;;;;5111988;28;1945;-66
2023/09/17 05:56:11;;;;;;;;;;;;;;;;;;5111864;28;990;-66
2023/09/17 05:58:36;;;;;;;;;;;;;;;;;;5111062;28;828;-67
2023/09/17 06:01:01;;;;;;;;;;;;;;;;;;5112567;28;836;-67
2023/09/17 06:03:26;;;;;;;;;;;;;;;;;;5111247;28;1012;-67
2023/09/17 06:05:55;;;;;;;;;;;;;;;;;;5111689;28;971;-66
2023/09/17 06:08:20;;;;;;;;;;;;;;;;;;5111915;28;839;-67
2023/09/17 06:10:46;;;;;;;;;;;;;;;;;;5111569;28;1239;-67
2023/09/17 06:13:11;;;;;;;;;;;;;;;;;;5110644;28;1909;-66
2023/09/17 06:15:36;;;;;;;;;;;;;;;;;;5111328;28;991;-66
2023/09/17 06:18:01;;;;;;;;;;;;;;;;;;5110347;28;852;-66
2023/09/17 06:20:27;;;;;;;;;;;;;;;;;;5110689;28;998;-67
2023/09/17 06:22:53;;;;;;;;;;;;;;;;;;5094202;28;1417;-67
2023/09/17 06:25:19;;;;;;;;;;;;;;;;;;5114761;28;954;-66
2023/09/17 06:27:44;;;;;;;;;;;;;;;;;;5113700;28;1241;-66
2023/09/17 06:30:10;;;;;;;;;;;;;;;;;;5114292;28;1299;-66
2023/09/17 06:32:35;;;;;;;;;;;;;;;;;;5114660;28;785;-66
2023/09/17 06:35:02;;;;;;;;;;;;;;;;;;5113602;28;1959;-66
2023/09/17 06:37:28;;;;;;;;;;;;;;;;;;5113142;28;1190;-66
2023/09/17 06:39:54;;;;;;;;;;;;;;;;;;5113965;28;915;-67
2023/09/17 06:42:19;;;;;;;;;;;;;;;;;;5113016;28;1274;-67
2023/09/17 06:44:45;;;;;;;;;;;;;;;;;;5114581;28;899;-66
2023/09/17 06:47:10;;;;;;;;;;;;;;;;;;5113481;28;929;-66
2023/09/17 06:49:35;;;;;;;;;;;;;;;;;;5114723;28;919;-66
2023/09/17 06:52:01;;;;;;;;;;;;;;;;;;5113529;28;916;-66
2023/09/17 06:54:26;;;;;;;;;;;;;;;;;;5114658;28;1886;-67
2023/09/17 06:56:52;;;;;;;;;;;;;;;;;;5114888;28;978;-67
2023/09/17 06:59:17;;;;;;;;;;;;;;;;;;5112834;28;857;-66
2023/09/17 07:01:45;;;;;;;;;;;;;;;;;;5107163;28;1162;-66
2023/09/17 07:04:10;;;;;;;;;;;;;;;;;;5110719;28;1116;-66
2023/09/17 07:06:35;;;;;;;;;;;;;;;;;;5107541;28;1397;-66
2023/09/17 07:09:01;;;;;;;;;;;;;;;;;;5108018;28;1179;-66
2023/09/17 07:11:26;;;;;;;;;;;;;;;;;;5094028;28;1143;-66
2023/09/17 07:13:52;;;;;;;;;;;;;;;;;;5101590;28;1934;-67
2023/09/17 07:16:18;;;;;;;;;;;;;;;;;;5111671;28;1170;-66
2023/09/17 07:18:44;;;;;;;;;;;;;;;;;;5107354;28;1230;-66
2023/09/17 07:21:09;;;;;;;;;;;;;;;;;;5098476;28;1175;-66
2023/09/17 07:23:35;;;;;;;;;;;;;;;;;;5092496;28;1191;-66
2023/09/17 07:26:02;;;;;;;;;;;;;;;;;;5093206;28;831;-65
2023/09/17 07:28:27;;;;;;;;;;;;;;;;;;5094519;28;858;-66
2023/09/17 07:30:54;;;;;;;;;;;;;;;;;;5095305;28;988;-66
2023/09/17 07:33:20;;;;;;;;;;;;;;;;;;5095038;28;1906;-66
2023/09/17 07:35:45;;;;;;;;;;;;;;;;;;5095192;28;879;-66
2023/09/17 07:38:10;;;;;;;;;;;;;;;;;;5093485;28;833;-65
2023/09/17 07:40:36;;;;;;;;;;;;;;;;;;5094775;28;957;-66
2023/09/17 07:43:03;;;;;;;;;;;;;;;;;;5096084;28;903;-65
2023/09/17 07:45:28;;;;;;;;;;;;;;;;;;5094313;28;869;-65
2023/09/17 07:47:54;;;;;;;;;;;;;;;;;;5094740;28;887;-65
2023/09/17 07:50:19;;;;;;;;;;;;;;;;;;5094062;28;880;-65
2023/09/17 07:52:45;;;;;;;;;;;;;;;;;;5094339;28;1010;-65
2023/09/17 07:55:10;;;;;;;;;;;;;;;;;;5093919;28;825;-63
2023/09/17 07:57:35;;;;;;;;;;;;;;;;;;5091911;28;896;-63
2023/09/17 08:00:01;;;;;;;;;;;;;;;;;;5094325;28;990;-64
2023/09/17 08:02:26;;;;;;;;;;;;;;;;;;5093424;28;864;-65
2023/09/17 08:04:51;;;;;;;;;;;;;;;;;;5093610;28;897;-65
2023/09/17 08:07:17;;;;;;;;;;;;;;;;;;5092834;28;893;-65
2023/09/17 08:09:43;;;;;;;;;;;;;;;;;;5092554;28;1203;-65
2023/09/17 08:12:10;;;;;;;;;;;;;;;;;;5093027;28;812;-65
2023/09/17 08:14:35;;;;;;;;;;;;;;;;;;5090925;28;1968;-65
2023/09/17 08:17:01;;;;;;;;;;;;;;;;;;5091267;28;886;-65
2023/09/17 08:19:26;;;;;;;;;;;;;;;;;;5103111;28;1190;-67
2023/09/17 08:21:52;;;;;;;;;;;;;;;;;;5113614;28;895;-64
2023/09/17 08:24:20;;;;;;;;;;;;;;;;;;5112114;28;1115;-65
2023/09/17 08:26:45;;;;;;;;;;;;;;;;;;5112470;28;1479;-65
2023/09/17 08:29:10;;;;;;;;;;;;;;;;;;5113985;28;1001;-64
2023/09/17 08:31:36;;;;;;;;;;;;;;;;;;5113491;28;1182;-66
2023/09/17 08:34:03;;;;;;;;;;;;;;;;;;5113881;28;1956;-66
2023/09/17 08:36:28;;;;;;;;;;;;;;;;;;5113408;28;828;-62
2023/09/17 08:38:54;;;;;;;;;;;;;;;;;;5113185;28;935;-66
2023/09/17 08:41:22;;;;;;;;;;;;;;;;;;5113700;28;883;-66
2023/09/17 08:43:48;;;;;;;;;;;;;;;;;;5113711;28;1206;-65
2023/09/17 08:46:14;;;;;;;;;;;;;;;;;;5112843;28;843;-66
2023/09/17 08:48:39;;;;;;;;;;;;;;;;;;5113048;28;816;-63
2023/09/17 08:51:08;;;;;;;;;;;;;;;;;;5113832;28;907;-62
2023/09/17 08:53:38;;;;;;;;;;;;;;;;;;5113596;28;1893;-69
2023/09/17 08:56:06;;;;;;;;;;;;;;;;;;5114187;28;844;-65
2023/09/17 08:58:36;;;;;;;;;;;;;;;;;;5108177;28;1108;-66
2023/09/17 09:01:03;;;;;;;;;;;;;;;;;;5103827;28;1191;-65
2023/09/17 09:03:33;;;;;;;;;;;;;;;;;;5100575;28;1211;-66
2023/09/17 09:05:59;;;;;;;;;;;;;;;;;;5092786;28;903;-66
2023/09/17 09:08:24;;;;;;;;;;;;;;;;;;5093363;28;921;-66
2023/09/17 09:10:53;;;;;;;;;;;;;;;;;;5092817;28;1199;-66
2023/09/17 09:13:20;;;;;;;;;;;;;;;;;;5092172;28;1911;-66
2023/09/17 09:15:46;;;;;;;;;;;;;;;;;;5092617;28;999;-66
2023/09/17 09:18:11;;;;;;;;;;;;;;;;;;5091722;28;927;-66
2023/09/17 09:20:37;;;;;;;;;;;;;;;;;;5092213;28;836;-66
2023/09/17 09:23:05;;;;;;;;;;;;;;;;;;5090505;28;1314;-66
2023/09/17 09:25:31;;;;;;;;;;;;;;;;;;5091678;28;798;-66
2023/09/17 09:28:00;;;;;;;;;;;;;;;;;;5092077;28;865;-66
2023/09/17 09:30:26;;;;;;;;;;;;;;;;;;5091641;28;876;-66
2023/09/17 09:32:51;;;;;;;;;;;;;;;;;;5090036;28;1963;-66
2023/09/17 09:35:17;;;;;;;;;;;;;;;;;;5091387;28;940;-66
2023/09/17 09:37:43;;;;;;;;;;;;;;;;;;5090203;28;1092;-67
2023/09/17 09:40:08;;;;;;;;;;;;;;;;;;5073373;28;1247;-65
2023/09/17 09:42:34;;;;;;;;;;;;;;;;;;5089655;28;738;-66
2023/09/17 09:44:59;;;;;;;;;;;;;;;;;;5091461;28;1019;-66
2023/09/17 09:47:24;;;;;;;;;;;;;;;;;;5092061;28;864;-66
2023/09/17 09:49:50;;;;;;;;;;;;;;;;;;5092307;28;912;-66
2023/09/17 09:52:15;;;;;;;;;;;;;;;;;;5090041;28;1297;-66
2023/09/17 09:54:41;;;;;;;;;;;;;;;;;;5092155;28;1949;-65
2023/09/17 09:57:07;;;;;;;;;;;;;;;;;;5092301;28;852;-66
2023/09/17 09:59:33;;;;;;;;;;;;;;;;;;5096989;28;836;-66
2023/09/17 10:01:58;;;;;;;;;;;;;;;;;;5097847;28;809;-66
2023/09/17 10:04:24;;;;;;;;;;;;;;;;;;5098049;28;901;-66
2023/09/17 10:06:50;;;;;;;;;;;;;;;;;;5097509;28;769;-66
2023/09/17 10:09:17;;;;;;;;;;;;;;;;;;5098715;28;840;-66
2023/09/17 10:11:42;;;;;;;;;;;;;;;;;;5096023;28;1977;-66
2023/09/17 10:14:07;;;;;;;;;;;;;;;;;;5098450;28;1914;-66
2023/09/17 10:16:36;;;;;;;;;;;;;;;;;;5098737;28;813;-66
2023/09/17 10:19:04;;;;;;;;;;;;;;;;;;5097019;28;1262;-66
2023/09/17 10:21:29;;;;;;;;;;;;;;;;;;5097614;28;949;-66
2023/09/17 10:23:56;;;;;;;;;;;;;;;;;;5097710;28;942;-67
2023/09/17 10:26:23;;;;;;;;;;;;;;;;;;5097300;28;844;-66
2023/09/17 10:28:49;;;;;;;;;;;;;;;;;;5096258;28;1349;-66
2023/09/17 10:31:15;;;;;;;;;;;;;;;;;;5097962;28;891;-66
2023/09/17 10:33:43;;;;;;;;;;;;;;;;;;5097565;28;1893;-66
2023/09/17 10:36:09;;;;;;;;;;;;;;;;;;5098122;28;907;-65
2023/09/17 10:38:35;;;;;;;;;;;;;;;;;;5095717;28;1162;-66
2023/09/17 10:41:02;;;;;;;;;;;;;;;;;;5097718;28;997;-66
2023/09/17 10:43:28;;;;;;;;;;;;;;;;;;5097782;28;891;-67
2023/09/17 10:45:55;;;;;;;;;;;;;;;;;;5097237;28;1401;-67
2023/09/17 10:48:20;;;;;;;;;;;;;;;;;;5096412;28;1847;-66
2023/09/17 10:50:46;;;;;;;;;;;;;;;;;;5098170;28;856;-65
2023/09/17 10:53:11;;;;;;;;;;;;;;;;;;5096407;28;1878;-65
2023/09/17 10:55:41;;;;;;;;;;;;;;;;;;5096006;28;1386;-66
2023/09/17 10:58:10;;;;;;;;;;;;;;;;;;5097184;28;851;-66
2023/09/17 11:00:37;;;;;;;;;;;;;;;;;;5096060;28;1326;-66
2023/09/17 11:03:05;;;;;;;;;;;;;;;;;;5095703;28;816;-66
2023/09/17 11:05:31;;;;;;;;;;;;;;;;;;5096313;28;939;-65
2023/09/17 11:08:00;;;;;;;;;;;;;;;;;;5097017;28;876;-65
2023/09/17 11:10:26;;;;;;;;;;;;;;;;;;5092918;28;1041;-66
2023/09/17 11:12:52;;;;;;;;;;;;;;;;;;5093418;28;899;-66
2023/09/17 11:15:17;;;;;;;;;;;;;;;;;;5091428;28;1971;-66
2023/09/17 11:17:45;;;;;;;;;;;;;;;;;;5089607;28;1175;-66
2023/09/17 11:20:13;;;;;;;;;;;;;;;;;;5101995;28;1128;-66
2023/09/17 11:22:39;;;;;;;;;;;;;;;;;;5092752;28;1127;-67
2023/09/17 11:25:07;;;;;;;;;;;;;;;;;;5093443;28;896;-66
2023/09/17 11:27:51;;;;;;;;;;;;;;;;;;5092732;28;908;-66
2023/09/17 11:30:18;;;;;;;;;;;;;;;;;;5091623;28;1356;-67
2023/09/17 11:32:53;;;;;;;;;;;;;;;;;;5091322;28;697;-67
2023/09/17 11:35:23;;;;;;;;;;;;;;;;;;5093174;28;907;-66
2023/09/17 11:37:50;;;;;;;;;;;;;;;;;;5093140;28;824;-66
2023/09/17 11:40:16;;;;;;;;;;;;;;;;;;5093016;28;820;-65
2023/09/17 11:42:41;;;;;;;;;;;;;;;;;;5092989;28;929;-66
2023/09/17 11:45:08;;;;;;;;;;;;;;;;;;5093800;28;800;-66
2023/09/17 11:47:34;;;;;;;;;;;;;;;;;;5093402;28;891;-65
2023/09/17 11:49:59;;;;;;;;;;;;;;;;;;5092357;28;912;-65
2023/09/17 11:52:25;;;;;;;;;;;;;;;;;;5094176;28;963;-66
2023/09/17 11:54:52;;;;;;;;;;;;;;;;;;5094120;28;1914;-65
2023/09/17 11:57:22;;;;;;;;;;;;;;;;;;5091825;28;867;-66
2023/09/17 11:59:47;;;;;;;;;;;;;;;;;;5093595;28;860;-67
2023/09/17 12:02:13;;;;;;;;;;;;;;;;;;5092768;28;1042;-66
2023/09/17 12:04:38;;;;;;;;;;;;;;;;;;5092574;28;1057;-66
2023/09/17 12:07:10;;;;;;;;;;;;;;;;;;5092847;28;930;-66
2023/09/17 12:12:05;;;;;;;;;;;;;;;;;;5092776;28;1121;-66
2023/09/17 12:14:34;;;;;;;;;;;;;;;;;;5092702;28;1914;-66
2023/09/17 12:17:01;;;;;;;;;;;;;;;;;;5092911;28;836;-67
2023/09/17 12:19:27;;;;;;;;;;;;;;;;;;5092095;28;1456;-66
2023/09/17 12:21:55;;;;;;;;;;;;;;;;;;5075712;28;1249;-67
2023/09/17 12:24:25;;;;;;;;;;;;;;;;;;5093976;28;863;-67
2023/09/17 12:29:33;;;;;;;;;;;;;;;;;;5093144;28;804;-66
2023/09/17 12:31:58;;;;;;;;;;;;;;;;;;5091984;28;1230;-65
2023/09/17 12:34:25;;;;;;;;;;;;;;;;;;5092617;28;1878;-66
2023/09/17 12:36:50;;;;;;;;;;;;;;;;;;5093054;28;984;-66
2023/09/17 12:39:16;;;;;;;;;;;;;;;;;;5093466;28;887;-66
2023/09/17 12:41:42;;;;;;;;;;;;;;;;;;5092079;28;813;-66
2023/09/17 12:44:08;;;;;;;;;;;;;;;;;;5092042;28;821;-66
2023/09/17 12:46:33;;;;;;;;;;;;;;;;;;5091681;28;896;-66
2023/09/17 12:48:59;;;;;;;;;;;;;;;;;;5091879;28;920;-66
2023/09/17 12:51:24;;;;;;;;;;;;;;;;;;5092137;28;871;-66
2023/09/17 12:53:50;;;;;;;;;;;;;;;;;;5091304;28;1972;-67
2023/09/17 12:56:15;;;;;;;;;;;;;;;;;;5091887;28;935;-67
2023/09/17 12:58:40;;;;;;;;;;;;;;;;;;5091268;28;1041;-66
2023/09/17 13:01:06;;;;;;;;;;;;;;;;;;5092252;28;757;-66
2023/09/17 13:03:32;;;;;;;;;;;;;;;;;;5091133;28;1026;-66
2023/09/17 13:05:57;;;;;;;;;;;;;;;;;;5091816;28;923;-67
2023/09/17 13:08:25;;;;;;;;;;;;;;;;;;5091686;28;907;-67
2023/09/17 13:10:50;;;;;;;;;;;;;;;;;;5090119;28;1041;-66
2023/09/17 13:13:15;;;;;;;;;;;;;;;;;;5091199;28;1929;-67
2023/09/17 13:15:41;;;;;;;;;;;;;;;;;;5089553;28;1329;-67
2023/09/17 13:18:07;;;;;;;;;;;;;;;;;;5091285;28;998;-67
2023/09/17 13:20:32;;;;;;;;;;;;;;;;;;5089410;28;1245;-67
2023/09/17 13:22:58;;;;;;;;;;;;;;;;;;5089848;28;1198;-67
2023/09/17 13:25:23;;;;;;;;;;;;;;;;;;5091344;28;935;-67
2023/09/17 13:27:48;;;;;;;;;;;;;;;;;;5090667;28;852;-67
2023/09/17 13:30:15;;;;;;;;;;;;;;;;;;5090738;28;951;-67
2023/09/17 13:32:41;;;;;;;;;;;;;;;;;;5090488;28;915;-67
2023/09/17 13:35:10;;;;;;;;;;;;;;;;;;5090930;28;1890;-67
2023/09/17 13:37:37;;;;;;;;;;;;;;;;;;5089210;28;1434;-67
2023/09/17 13:40:04;;;;;;;;;;;;;;;;;;5091078;28;829;-67
2023/09/17 13:42:29;;;;;;;;;;;;;;;;;;5089769;28;1434;-66
2023/09/17 13:44:56;;;;;;;;;;;;;;;;;;5091494;28;868;-67
2023/09/17 13:47:21;;;;;;;;;;;;;;;;;;5091101;28;809;-67
2023/09/17 13:49:46;;;;;;;;;;;;;;;;;;5090514;28;962;-67
2023/09/17 13:52:12;;;;;;;;;;;;;;;;;;5090015;28;1120;-67
2023/09/17 13:54:38;;;;;;;;;;;;;;;;;;5090930;28;1898;-67
2023/09/17 13:57:03;;;;;;;;;;;;;;;;;;5091469;28;856;-67
2023/09/17 13:59:29;;;;;;;;;;;;;;;;;;5091340;28;889;-66
2023/09/17 14:01:54;;;;;;;;;;;;;;;;;;5091255;28;894;-67
2023/09/17 14:04:19;;;;;;;;;;;;;;;;;;5090082;28;1262;-67
2023/09/17 14:06:45;;;;;;;;;;;;;;;;;;5090000;28;1310;-67
2023/09/17 14:09:10;;;;;;;;;;;;;;;;;;5089953;28;1175;-67
2023/09/17 14:11:36;;;;;;;;;;;;;;;;;;5091001;28;1340;-67
2023/09/17 14:14:01;;;;;;;;;;;;;;;;;;5091381;28;1913;-67
2023/09/17 14:16:26;;;;;;;;;;;;;;;;;;5089857;28;1281;-67
2023/09/17 14:18:51;;;;;;;;;;;;;;;;;;5091040;28;817;-67
2023/09/17 14:21:17;;;;;;;;;;;;;;;;;;5090814;28;891;-67
2023/09/17 14:23:43;;;;;;;;;;;;;;;;;;5091364;28;931;-67
2023/09/17 14:26:08;;;;;;;;;;;;;;;;;;5091863;28;837;-67
2023/09/17 14:28:33;;;;;;;;;;;;;;;;;;5091110;28;824;-67
2023/09/17 14:30:59;;;;;;;;;;;;;;;;;;5091676;28;879;-66
2023/09/17 14:33:24;;;;;;;;;;;;;;;;;;5091443;28;1953;-66
2023/09/17 14:35:50;;;;;;;;;;;;;;;;;;5090348;28;1011;-67
2023/09/17 14:38:15;;;;;;;;;;;;;;;;;;5089271;28;1175;-67
2023/09/17 14:40:40;;;;;;;;;;;;;;;;;;5089909;28;777;-66
2023/09/17 14:43:05;;;;;;;;;;;;;;;;;;5090713;28;998;-67
2023/09/17 14:45:31;;;;;;;;;;;;;;;;;;5090366;28;1861;-67
2023/09/17 14:47:57;;;;;;;;;;;;;;;;;;5094706;28;812;-67
2023/09/17 14:50:23;;;;;;;;;;;;;;;;;;5093268;28;856;-67
2023/09/17 14:52:48;;;;;;;;;;;;;;;;;;5091990;28;1425;-66
2023/09/17 14:55:13;;;;;;;;;;;;;;;;;;5089997;28;1906;-66
2023/09/17 14:57:40;;;;;;;;;;;;;;;;;;5092541;28;1300;-67
2023/09/17 15:00:06;;;;;;;;;;;;;;;;;;5110450;28;1425;-66
2023/09/17 15:02:32;;;;;;;;;;;;;;;;;;5114128;28;863;-66
2023/09/17 15:04:57;;;;;;;;;;;;;;;;;;5114773;28;881;-66
2023/09/17 15:07:22;;;;;;;;;;;;;;;;;;5114878;28;859;-67
2023/09/17 15:09:48;;;;;;;;;;;;;;;;;;5114164;28;896;-66
2023/09/17 15:12:13;;;;;;;;;;;;;;;;;;5112636;28;1059;-66
2023/09/17 15:14:39;;;;;;;;;;;;;;;;;;5112714;28;1913;-67
2023/09/17 15:17:04;;;;;;;;;;;;;;;;;;5114486;28;891;-67
2023/09/17 15:19:29;;;;;;;;;;;;;;;;;;5114474;28;914;-67
2023/09/17 15:21:54;;;;;;;;;;;;;;;;;;5114121;28;836;-67
2023/09/17 15:24:20;;;;;;;;;;;;;;;;;;5114056;28;977;-67
2023/09/17 15:26:45;;;;;;;;;;;;;;;;;;5113939;28;911;-67
2023/09/17 15:29:11;;;;;;;;;;;;;;;;;;5114236;28;797;-67
2023/09/17 15:31:38;;;;;;;;;;;;;;;;;;5113637;28;836;-67
2023/09/17 15:34:03;;;;;;;;;;;;;;;;;;5112954;28;1905;-67
2023/09/17 15:36:30;;;;;;;;;;;;;;;;;;5112681;28;1337;-67
2023/09/17 15:38:55;;;;;;;;;;;;;;;;;;5114192;28;852;-66
2023/09/17 15:41:20;;;;;;;;;;;;;;;;;;5114616;28;785;-67
2023/09/17 15:43:46;;;;;;;;;;;;;;;;;;5114251;28;1085;-67
2023/09/17 15:46:11;;;;;;;;;;;;;;;;;;5114163;28;859;-66
2023/09/17 15:48:36;;;;;;;;;;;;;;;;;;5113298;28;895;-67
2023/09/17 15:51:04;;;;;;;;;;;;;;;;;;5114811;28;1026;-67
2023/09/17 15:53:31;;;;;;;;;;;;;;;;;;5112627;28;1910;-67
2023/09/17 15:55:57;;;;;;;;;;;;;;;;;;5113010;28;812;-67
2023/09/17 15:58:22;;;;;;;;;;;;;;;;;;5113136;28;1261;-67
2023/09/17 16:00:47;;;;;;;;;;;;;;;;;;5113262;27;867;-66
2023/09/17 16:03:13;;;;;;;;;;;;;;;;;;5113695;28;1123;-66
2023/09/17 16:05:39;;;;;;;;;;;;;;;;;;5112778;28;1027;-66
2023/09/17 16:08:05;;;;;;;;;;;;;;;;;;5111817;28;1349;-66
2023/09/17 16:10:31;;;;;;;;;;;;;;;;;;5112934;28;1028;-66
2023/09/17 16:12:56;;;;;;;;;;;;;;;;;;5112286;28;1209;-66
2023/09/17 16:15:21;;;;;;;;;;;;;;;;;;5112621;28;1971;-66
2023/09/17 16:17:50;;;;;;;;;;;;;;;;;;5112390;28;958;-66
2023/09/17 16:20:15;;;;;;;;;;;;;;;;;;5111510;28;1221;-66
2023/09/17 16:22:40;;;;;;;;;;;;;;;;;;5112284;28;828;-66
2023/09/17 16:25:08;;;;;;;;;;;;;;;;;;5113610;28;911;-66
2023/09/17 16:27:33;;;;;;;;;;;;;;;;;;5113297;28;883;-66
2023/09/17 16:29:58;;;;;;;;;;;;;;;;;;5112800;28;935;-66
2023/09/17 16:32:24;;;;;;;;;;;;;;;;;;5112894;28;824;-66
2023/09/17 16:34:51;;;;;;;;;;;;;;;;;;5113395;28;1910;-66
2023/09/17 16:37:16;;;;;;;;;;;;;;;;;;5112101;28;1574;-67
2023/09/17 16:39:41;;;;;;;;;;;;;;;;;;5112000;28;1050;-66
2023/09/17 16:42:06;;;;;;;;;;;;;;;;;;5112261;28;994;-66
2023/09/17 16:44:32;;;;;;;;;;;;;;;;;;5110918;28;1012;-66
2023/09/17 16:46:57;;;;;;;;;;;;;;;;;;5112194;28;979;-66
2023/09/17 16:49:22;;;;;;;;;;;;;;;;;;5112271;28;849;-66
2023/09/17 16:51:48;;;;;;;;;;;;;;;;;;5111568;28;837;-66
2023/09/17 16:54:13;;;;;;;;;;;;;;;;;;5112345;28;1914;-66
2023/09/17 16:56:40;;;;;;;;;;;;;;;;;;5110348;28;877;-66
2023/09/17 16:59:05;;;;;;;;;;;;;;;;;;5112209;28;930;-66
2023/09/17 17:01:30;;;;;;;;;;;;;;;;;;5112011;28;1010;-66
2023/09/17 17:03:55;;;;;;;;;;;;;;;;;;5112172;28;1017;-66
2023/09/17 17:06:21;;;;;;;;;;;;;;;;;;5112597;28;809;-66
2023/09/17 17:08:46;;;;;;;;;;;;;;;;;;5111389;28;1033;-67